sensor_id;sensor_type;location;lat;lon;timestamp;P1;durP1;ratioP1;P2;durP2;ratioP2
25982;SDS011;13773;48.868;10.730;2023-07-24T00:02:02;9.73;;;6.23;;
25982;SDS011;13773;48.868;10.730;2023-07-24T00:04:29;8.00;;;6.23;;
25982;SDS011;13773;48.868;10.730;2023-07-24T00:06:56;8.57;;;6.23;;
25982;SDS011;13773;48.868;10.730;2023-07-24T00:09:22;9.87;;;6.27;;
25982;SDS011;13773;48.868;10.730;2023-07-24T00:11:49;10.00;;;5.83;;
25982;SDS011;13773;48.868;10.730;2023-07-24T00:14:15;7.47;;;5.87;;
25982;SDS011;13773;48.868;10.730;2023-07-24T00:16:41;7.23;;;6.03;;
25982;SDS011;13773;48.868;10.730;2023-07-24T00:19:07;8.43;;;6.07;;
25982;SDS011;13773;48.868;10.730;2023-07-24T00:21:33;7.87;;;5.50;;
25982;SDS011;13773;48.868;10.730;2023-07-24T00:23:59;7.67;;;5.60;;
25982;SDS011;13773;48.868;10.730;2023-07-24T00:26:24;8.70;;;5.73;;
25982;SDS011;13773;48.868;10.730;2023-07-24T00:28:50;7.83;;;6.37;;
25982;SDS011;13773;48.868;10.730;2023-07-24T00:31:16;11.10;;;7.43;;
25982;SDS011;13773;48.868;10.730;2023-07-24T00:33:42;12.87;;;7.97;;
25982;SDS011;13773;48.868;10.730;2023-07-24T00:36:07;10.20;;;6.83;;
25982;SDS011;13773;48.868;10.730;2023-07-24T00:38:33;10.90;;;6.63;;
25982;SDS011;13773;48.868;10.730;2023-07-24T00:40:58;7.40;;;5.90;;
25982;SDS011;13773;48.868;10.730;2023-07-24T00:43:24;7.37;;;5.80;;
25982;SDS011;13773;48.868;10.730;2023-07-24T00:45:50;6.97;;;5.63;;
25982;SDS011;13773;48.868;10.730;2023-07-24T00:48:16;8.70;;;6.43;;
25982;SDS011;13773;48.868;10.730;2023-07-24T00:50:42;8.07;;;5.70;;
25982;SDS011;13773;48.868;10.730;2023-07-24T00:53:10;7.60;;;5.87;;
25982;SDS011;13773;48.868;10.730;2023-07-24T00:55:37;7.90;;;6.30;;
25982;SDS011;13773;48.868;10.730;2023-07-24T00:58:04;9.60;;;6.07;;
25982;SDS011;13773;48.868;10.730;2023-07-24T01:00:30;9.27;;;6.40;;
25982;SDS011;13773;48.868;10.730;2023-07-24T01:02:55;8.27;;;6.47;;
25982;SDS011;13773;48.868;10.730;2023-07-24T01:05:22;8.40;;;6.30;;
25982;SDS011;13773;48.868;10.730;2023-07-24T01:07:50;8.73;;;5.97;;
25982;SDS011;13773;48.868;10.730;2023-07-24T01:10:16;10.40;;;6.00;;
25982;SDS011;13773;48.868;10.730;2023-07-24T01:15:19;9.40;;;6.70;;
25982;SDS011;13773;48.868;10.730;2023-07-24T01:17:58;8.80;;;6.80;;
25982;SDS011;13773;48.868;10.730;2023-07-24T01:20:26;9.03;;;6.30;;
25982;SDS011;13773;48.868;10.730;2023-07-24T01:23:04;8.90;;;6.90;;
25982;SDS011;13773;48.868;10.730;2023-07-24T01:25:36;6.97;;;6.17;;
25982;SDS011;13773;48.868;10.730;2023-07-24T01:28:16;8.57;;;5.87;;
25982;SDS011;13773;48.868;10.730;2023-07-24T01:30:41;7.70;;;6.50;;
25982;SDS011;13773;48.868;10.730;2023-07-24T01:33:07;7.70;;;5.93;;
25982;SDS011;13773;48.868;10.730;2023-07-24T01:35:33;7.70;;;6.10;;
25982;SDS011;13773;48.868;10.730;2023-07-24T01:37:59;7.47;;;5.93;;
25982;SDS011;13773;48.868;10.730;2023-07-24T01:40:27;7.47;;;6.23;;
25982;SDS011;13773;48.868;10.730;2023-07-24T01:42:52;8.20;;;6.20;;
25982;SDS011;13773;48.868;10.730;2023-07-24T01:45:18;9.20;;;6.40;;
25982;SDS011;13773;48.868;10.730;2023-07-24T01:47:44;7.50;;;6.40;;
25982;SDS011;13773;48.868;10.730;2023-07-24T01:50:10;8.33;;;5.80;;
25982;SDS011;13773;48.868;10.730;2023-07-24T01:52:35;8.70;;;6.10;;
25982;SDS011;13773;48.868;10.730;2023-07-24T01:55:01;9.20;;;6.53;;
25982;SDS011;13773;48.868;10.730;2023-07-24T01:57:27;6.93;;;6.13;;
25982;SDS011;13773;48.868;10.730;2023-07-24T01:59:52;8.73;;;6.47;;
25982;SDS011;13773;48.868;10.730;2023-07-24T02:02:18;8.30;;;5.90;;
25982;SDS011;13773;48.868;10.730;2023-07-24T02:04:45;8.27;;;6.73;;
25982;SDS011;13773;48.868;10.730;2023-07-24T02:07:11;8.03;;;6.47;;
25982;SDS011;13773;48.868;10.730;2023-07-24T02:09:37;8.17;;;6.20;;
25982;SDS011;13773;48.868;10.730;2023-07-24T02:12:02;9.70;;;6.07;;
25982;SDS011;13773;48.868;10.730;2023-07-24T02:14:28;9.07;;;6.47;;
25982;SDS011;13773;48.868;10.730;2023-07-24T02:16:54;8.37;;;6.47;;
25982;SDS011;13773;48.868;10.730;2023-07-24T02:19:20;10.77;;;6.43;;
25982;SDS011;13773;48.868;10.730;2023-07-24T02:21:45;7.83;;;6.30;;
25982;SDS011;13773;48.868;10.730;2023-07-24T02:24:11;7.67;;;5.73;;
25982;SDS011;13773;48.868;10.730;2023-07-24T02:26:37;8.10;;;6.10;;
25982;SDS011;13773;48.868;10.730;2023-07-24T02:29:02;8.70;;;6.17;;
25982;SDS011;13773;48.868;10.730;2023-07-24T02:31:28;8.80;;;7.13;;
25982;SDS011;13773;48.868;10.730;2023-07-24T02:33:54;7.27;;;6.07;;
25982;SDS011;13773;48.868;10.730;2023-07-24T02:36:19;8.93;;;6.57;;
25982;SDS011;13773;48.868;10.730;2023-07-24T02:38:45;9.13;;;6.20;;
25982;SDS011;13773;48.868;10.730;2023-07-24T02:41:10;8.73;;;6.33;;
25982;SDS011;13773;48.868;10.730;2023-07-24T02:43:36;9.07;;;6.70;;
25982;SDS011;13773;48.868;10.730;2023-07-24T02:46:02;9.03;;;6.50;;
25982;SDS011;13773;48.868;10.730;2023-07-24T02:48:28;7.60;;;6.10;;
25982;SDS011;13773;48.868;10.730;2023-07-24T02:50:54;9.17;;;7.00;;
25982;SDS011;13773;48.868;10.730;2023-07-24T02:53:20;8.90;;;6.60;;
25982;SDS011;13773;48.868;10.730;2023-07-24T02:55:45;7.90;;;6.33;;
25982;SDS011;13773;48.868;10.730;2023-07-24T02:58:12;8.43;;;6.23;;
25982;SDS011;13773;48.868;10.730;2023-07-24T03:00:38;7.77;;;6.70;;
25982;SDS011;13773;48.868;10.730;2023-07-24T03:03:04;9.03;;;6.90;;
25982;SDS011;13773;48.868;10.730;2023-07-24T03:05:30;8.40;;;5.87;;
25982;SDS011;13773;48.868;10.730;2023-07-24T03:07:56;8.93;;;6.13;;
25982;SDS011;13773;48.868;10.730;2023-07-24T03:10:22;9.00;;;6.47;;
25982;SDS011;13773;48.868;10.730;2023-07-24T03:12:48;10.43;;;6.70;;
25982;SDS011;13773;48.868;10.730;2023-07-24T03:15:14;9.40;;;6.60;;
25982;SDS011;13773;48.868;10.730;2023-07-24T03:17:40;8.47;;;6.73;;
25982;SDS011;13773;48.868;10.730;2023-07-24T03:20:13;8.97;;;6.87;;
25982;SDS011;13773;48.868;10.730;2023-07-24T03:22:40;9.80;;;7.23;;
25982;SDS011;13773;48.868;10.730;2023-07-24T03:25:07;9.43;;;6.37;;
25982;SDS011;13773;48.868;10.730;2023-07-24T03:27:33;9.77;;;6.83;;
25982;SDS011;13773;48.868;10.730;2023-07-24T03:29:58;9.97;;;7.20;;
25982;SDS011;13773;48.868;10.730;2023-07-24T03:32:24;10.40;;;6.93;;
25982;SDS011;13773;48.868;10.730;2023-07-24T03:34:50;10.20;;;6.83;;
25982;SDS011;13773;48.868;10.730;2023-07-24T03:37:15;9.70;;;7.40;;
25982;SDS011;13773;48.868;10.730;2023-07-24T03:39:41;9.97;;;7.43;;
25982;SDS011;13773;48.868;10.730;2023-07-24T03:42:09;8.33;;;6.90;;
25982;SDS011;13773;48.868;10.730;2023-07-24T03:44:38;8.97;;;6.80;;
25982;SDS011;13773;48.868;10.730;2023-07-24T03:47:04;9.13;;;7.10;;
25982;SDS011;13773;48.868;10.730;2023-07-24T03:49:30;10.67;;;6.83;;
25982;SDS011;13773;48.868;10.730;2023-07-24T03:51:56;10.80;;;6.67;;
25982;SDS011;13773;48.868;10.730;2023-07-24T03:54:21;9.67;;;7.60;;
25982;SDS011;13773;48.868;10.730;2023-07-24T03:56:47;10.50;;;7.73;;
25982;SDS011;13773;48.868;10.730;2023-07-24T03:59:13;10.07;;;7.13;;
25982;SDS011;13773;48.868;10.730;2023-07-24T04:01:38;7.70;;;6.80;;
25982;SDS011;13773;48.868;10.730;2023-07-24T04:04:04;8.87;;;5.67;;
25982;SDS011;13773;48.868;10.730;2023-07-24T04:06:30;10.47;;;7.43;;
25982;SDS011;13773;48.868;10.730;2023-07-24T04:08:55;8.90;;;7.00;;
25982;SDS011;13773;48.868;10.730;2023-07-24T04:11:21;10.60;;;7.27;;
25982;SDS011;13773;48.868;10.730;2023-07-24T04:13:47;10.50;;;7.20;;
25982;SDS011;13773;48.868;10.730;2023-07-24T04:16:12;9.17;;;6.83;;
25982;SDS011;13773;48.868;10.730;2023-07-24T04:18:38;9.73;;;7.20;;
25982;SDS011;13773;48.868;10.730;2023-07-24T04:21:04;9.87;;;7.10;;
25982;SDS011;13773;48.868;10.730;2023-07-24T04:23:30;8.83;;;7.23;;
25982;SDS011;13773;48.868;10.730;2023-07-24T04:25:56;9.23;;;7.03;;
25982;SDS011;13773;48.868;10.730;2023-07-24T04:28:21;7.90;;;6.80;;
25982;SDS011;13773;48.868;10.730;2023-07-24T04:30:47;10.57;;;7.43;;
25982;SDS011;13773;48.868;10.730;2023-07-24T04:33:13;8.80;;;7.20;;
25982;SDS011;13773;48.868;10.730;2023-07-24T04:35:38;10.10;;;6.93;;
25982;SDS011;13773;48.868;10.730;2023-07-24T04:38:04;8.07;;;6.40;;
25982;SDS011;13773;48.868;10.730;2023-07-24T04:40:30;11.83;;;7.73;;
25982;SDS011;13773;48.868;10.730;2023-07-24T04:42:55;9.63;;;6.87;;
25982;SDS011;13773;48.868;10.730;2023-07-24T04:45:21;9.70;;;7.03;;
25982;SDS011;13773;48.868;10.730;2023-07-24T04:47:47;10.27;;;7.33;;
25982;SDS011;13773;48.868;10.730;2023-07-24T04:50:12;10.07;;;7.63;;
25982;SDS011;13773;48.868;10.730;2023-07-24T04:52:38;8.93;;;6.63;;
25982;SDS011;13773;48.868;10.730;2023-07-24T04:55:04;10.60;;;7.50;;
25982;SDS011;13773;48.868;10.730;2023-07-24T04:57:30;11.37;;;7.90;;
25982;SDS011;13773;48.868;10.730;2023-07-24T04:59:55;9.87;;;7.60;;
25982;SDS011;13773;48.868;10.730;2023-07-24T05:02:21;9.90;;;7.33;;
25982;SDS011;13773;48.868;10.730;2023-07-24T05:04:47;11.70;;;8.33;;
25982;SDS011;13773;48.868;10.730;2023-07-24T05:07:12;10.10;;;7.97;;
25982;SDS011;13773;48.868;10.730;2023-07-24T05:09:38;10.63;;;7.47;;
25982;SDS011;13773;48.868;10.730;2023-07-24T05:12:04;11.10;;;8.33;;
25982;SDS011;13773;48.868;10.730;2023-07-24T05:14:30;10.43;;;7.63;;
25982;SDS011;13773;48.868;10.730;2023-07-24T05:16:56;11.57;;;8.43;;
25982;SDS011;13773;48.868;10.730;2023-07-24T05:19:21;14.33;;;7.80;;
25982;SDS011;13773;48.868;10.730;2023-07-24T05:21:47;10.03;;;7.97;;
25982;SDS011;13773;48.868;10.730;2023-07-24T05:24:13;11.67;;;8.47;;
25982;SDS011;13773;48.868;10.730;2023-07-24T05:26:38;9.30;;;7.67;;
25982;SDS011;13773;48.868;10.730;2023-07-24T05:29:04;10.47;;;8.27;;
25982;SDS011;13773;48.868;10.730;2023-07-24T05:31:29;10.40;;;8.27;;
25982;SDS011;13773;48.868;10.730;2023-07-24T05:33:55;10.60;;;7.93;;
25982;SDS011;13773;48.868;10.730;2023-07-24T05:36:21;11.63;;;8.00;;
25982;SDS011;13773;48.868;10.730;2023-07-24T05:38:46;12.80;;;8.93;;
25982;SDS011;13773;48.868;10.730;2023-07-24T05:41:12;13.70;;;8.97;;
25982;SDS011;13773;48.868;10.730;2023-07-24T05:43:38;11.47;;;9.03;;
25982;SDS011;13773;48.868;10.730;2023-07-24T05:46:03;10.33;;;8.57;;
25982;SDS011;13773;48.868;10.730;2023-07-24T05:48:29;11.93;;;9.23;;
25982;SDS011;13773;48.868;10.730;2023-07-24T05:50:55;11.83;;;9.00;;
25982;SDS011;13773;48.868;10.730;2023-07-24T05:53:20;10.80;;;9.27;;
25982;SDS011;13773;48.868;10.730;2023-07-24T05:55:46;12.27;;;9.40;;
25982;SDS011;13773;48.868;10.730;2023-07-24T05:58:12;10.90;;;9.10;;
25982;SDS011;13773;48.868;10.730;2023-07-24T06:00:38;14.33;;;9.53;;
25982;SDS011;13773;48.868;10.730;2023-07-24T06:03:03;13.17;;;8.93;;
25982;SDS011;13773;48.868;10.730;2023-07-24T06:05:29;10.00;;;8.60;;
25982;SDS011;13773;48.868;10.730;2023-07-24T06:07:56;11.50;;;9.63;;
25982;SDS011;13773;48.868;10.730;2023-07-24T06:10:29;12.03;;;9.93;;
25982;SDS011;13773;48.868;10.730;2023-07-24T06:12:55;12.35;;;9.98;;
25982;SDS011;13773;48.868;10.730;2023-07-24T06:15:21;11.55;;;10.02;;
25982;SDS011;13773;48.868;10.730;2023-07-24T06:17:46;11.82;;;10.18;;
25982;SDS011;13773;48.868;10.730;2023-07-24T06:20:12;10.70;;;9.60;;
25982;SDS011;13773;48.868;10.730;2023-07-24T06:22:38;11.85;;;9.90;;
25982;SDS011;13773;48.868;10.730;2023-07-24T06:25:04;11.63;;;10.00;;
25982;SDS011;13773;48.868;10.730;2023-07-24T06:27:30;15.90;;;11.25;;
25982;SDS011;13773;48.868;10.730;2023-07-24T06:29:55;12.68;;;10.45;;
25982;SDS011;13773;48.868;10.730;2023-07-24T06:32:21;15.60;;;11.85;;
25982;SDS011;13773;48.868;10.730;2023-07-24T06:34:46;15.57;;;11.18;;
25982;SDS011;13773;48.868;10.730;2023-07-24T06:37:13;14.38;;;11.27;;
25982;SDS011;13773;48.868;10.730;2023-07-24T06:39:39;20.63;;;10.98;;
25982;SDS011;13773;48.868;10.730;2023-07-24T06:42:04;17.23;;;11.60;;
25982;SDS011;13773;48.868;10.730;2023-07-24T06:44:30;27.38;;;11.90;;
25982;SDS011;13773;48.868;10.730;2023-07-24T06:46:56;18.60;;;11.32;;
25982;SDS011;13773;48.868;10.730;2023-07-24T06:49:21;15.20;;;11.05;;
25982;SDS011;13773;48.868;10.730;2023-07-24T06:51:48;14.38;;;11.15;;
25982;SDS011;13773;48.868;10.730;2023-07-24T06:54:13;13.88;;;10.23;;
25982;SDS011;13773;48.868;10.730;2023-07-24T06:56:39;26.90;;;11.27;;
25982;SDS011;13773;48.868;10.730;2023-07-24T06:59:05;15.85;;;10.57;;
25982;SDS011;13773;48.868;10.730;2023-07-24T07:01:30;11.57;;;10.32;;
25982;SDS011;13773;48.868;10.730;2023-07-24T07:03:56;16.73;;;9.95;;
25982;SDS011;13773;48.868;10.730;2023-07-24T07:06:22;17.35;;;10.15;;
25982;SDS011;13773;48.868;10.730;2023-07-24T07:08:47;17.10;;;10.82;;
25982;SDS011;13773;48.868;10.730;2023-07-24T07:11:13;16.05;;;10.43;;
25982;SDS011;13773;48.868;10.730;2023-07-24T07:13:39;16.25;;;10.23;;
25982;SDS011;13773;48.868;10.730;2023-07-24T07:16:04;13.70;;;10.27;;
25982;SDS011;13773;48.868;10.730;2023-07-24T07:18:30;16.00;;;10.13;;
25982;SDS011;13773;48.868;10.730;2023-07-24T07:20:56;19.13;;;11.00;;
25982;SDS011;13773;48.868;10.730;2023-07-24T07:23:21;15.50;;;10.40;;
25982;SDS011;13773;48.868;10.730;2023-07-24T07:25:47;24.33;;;11.40;;
25982;SDS011;13773;48.868;10.730;2023-07-24T07:28:14;17.07;;;9.73;;
25982;SDS011;13773;48.868;10.730;2023-07-24T07:30:41;15.13;;;10.03;;
25982;SDS011;13773;48.868;10.730;2023-07-24T07:33:07;14.70;;;10.57;;
25982;SDS011;13773;48.868;10.730;2023-07-24T07:35:34;17.27;;;10.27;;
25982;SDS011;13773;48.868;10.730;2023-07-24T07:38:00;16.63;;;9.63;;
25982;SDS011;13773;48.868;10.730;2023-07-24T07:40:26;16.70;;;10.10;;
25982;SDS011;13773;48.868;10.730;2023-07-24T07:42:53;17.20;;;10.47;;
25982;SDS011;13773;48.868;10.730;2023-07-24T07:45:19;19.07;;;10.40;;
25982;SDS011;13773;48.868;10.730;2023-07-24T07:47:45;16.27;;;9.70;;
25982;SDS011;13773;48.868;10.730;2023-07-24T07:50:10;15.47;;;9.90;;
25982;SDS011;13773;48.868;10.730;2023-07-24T07:52:37;19.87;;;10.27;;
25982;SDS011;13773;48.868;10.730;2023-07-24T07:55:03;15.30;;;9.50;;
25982;SDS011;13773;48.868;10.730;2023-07-24T07:57:31;16.03;;;10.17;;
25982;SDS011;13773;48.868;10.730;2023-07-24T07:59:58;10.90;;;9.00;;
25982;SDS011;13773;48.868;10.730;2023-07-24T08:02:24;18.00;;;9.43;;
25982;SDS011;13773;48.868;10.730;2023-07-24T08:04:50;12.57;;;8.17;;
25982;SDS011;13773;48.868;10.730;2023-07-24T08:07:16;12.50;;;8.27;;
25982;SDS011;13773;48.868;10.730;2023-07-24T08:09:42;13.20;;;8.13;;
25982;SDS011;13773;48.868;10.730;2023-07-24T08:12:07;12.33;;;8.60;;
25982;SDS011;13773;48.868;10.730;2023-07-24T08:14:33;13.37;;;8.43;;
25982;SDS011;13773;48.868;10.730;2023-07-24T08:16:59;14.67;;;8.40;;
25982;SDS011;13773;48.868;10.730;2023-07-24T08:19:27;9.27;;;7.70;;
25982;SDS011;13773;48.868;10.730;2023-07-24T08:21:53;11.80;;;8.20;;
25982;SDS011;13773;48.868;10.730;2023-07-24T08:24:19;9.63;;;7.50;;
25982;SDS011;13773;48.868;10.730;2023-07-24T08:26:45;11.27;;;8.17;;
25982;SDS011;13773;48.868;10.730;2023-07-24T08:29:11;11.43;;;7.97;;
25982;SDS011;13773;48.868;10.730;2023-07-24T08:31:37;11.53;;;7.37;;
25982;SDS011;13773;48.868;10.730;2023-07-24T08:34:02;13.47;;;7.40;;
25982;SDS011;13773;48.868;10.730;2023-07-24T08:36:28;11.80;;;7.87;;
25982;SDS011;13773;48.868;10.730;2023-07-24T08:38:54;9.73;;;7.20;;
25982;SDS011;13773;48.868;10.730;2023-07-24T08:41:20;15.63;;;7.77;;
25982;SDS011;13773;48.868;10.730;2023-07-24T08:43:46;10.52;;;6.68;;
25982;SDS011;13773;48.868;10.730;2023-07-24T08:46:11;10.10;;;7.45;;
25982;SDS011;13773;48.868;10.730;2023-07-24T08:48:39;10.65;;;7.25;;
25982;SDS011;13773;48.868;10.730;2023-07-24T08:51:07;10.90;;;7.10;;
25982;SDS011;13773;48.868;10.730;2023-07-24T08:53:37;13.40;;;7.20;;
25982;SDS011;13773;48.868;10.730;2023-07-24T08:56:04;11.13;;;7.70;;
25982;SDS011;13773;48.868;10.730;2023-07-24T08:58:31;9.20;;;6.20;;
25982;SDS011;13773;48.868;10.730;2023-07-24T09:00:57;8.57;;;6.95;;
25982;SDS011;13773;48.868;10.730;2023-07-24T09:03:24;8.52;;;7.10;;
25982;SDS011;13773;48.868;10.730;2023-07-24T09:05:50;7.38;;;6.65;;
25982;SDS011;13773;48.868;10.730;2023-07-24T09:08:16;8.00;;;6.97;;
25982;SDS011;13773;48.868;10.730;2023-07-24T09:10:53;9.40;;;7.32;;
25982;SDS011;13773;48.868;10.730;2023-07-24T09:13:18;9.45;;;7.78;;
25982;SDS011;13773;48.868;10.730;2023-07-24T09:15:44;9.05;;;7.13;;
25982;SDS011;13773;48.868;10.730;2023-07-24T09:18:10;8.50;;;7.13;;
25982;SDS011;13773;48.868;10.730;2023-07-24T09:20:40;8.85;;;7.05;;
25982;SDS011;13773;48.868;10.730;2023-07-24T09:23:07;8.85;;;6.65;;
25982;SDS011;13773;48.868;10.730;2023-07-24T09:25:34;10.55;;;7.45;;
25982;SDS011;13773;48.868;10.730;2023-07-24T09:28:01;7.72;;;6.85;;
25982;SDS011;13773;48.868;10.730;2023-07-24T09:30:38;9.13;;;6.70;;
25982;SDS011;13773;48.868;10.730;2023-07-24T09:33:04;7.82;;;6.53;;
25982;SDS011;13773;48.868;10.730;2023-07-24T09:35:30;9.10;;;7.05;;
25982;SDS011;13773;48.868;10.730;2023-07-24T09:38:04;7.97;;;6.60;;
25982;SDS011;13773;48.868;10.730;2023-07-24T09:40:41;7.72;;;6.80;;
25982;SDS011;13773;48.868;10.730;2023-07-24T09:43:26;10.50;;;7.68;;
25982;SDS011;13773;48.868;10.730;2023-07-24T09:45:53;9.48;;;7.72;;
25982;SDS011;13773;48.868;10.730;2023-07-24T09:48:20;9.75;;;7.40;;
25982;SDS011;13773;48.868;10.730;2023-07-24T09:50:48;9.38;;;7.70;;
25982;SDS011;13773;48.868;10.730;2023-07-24T09:53:19;8.25;;;7.30;;
25982;SDS011;13773;48.868;10.730;2023-07-24T09:55:54;7.85;;;6.85;;
25982;SDS011;13773;48.868;10.730;2023-07-24T09:58:26;7.75;;;6.68;;
25982;SDS011;13773;48.868;10.730;2023-07-24T10:00:52;7.72;;;6.40;;
25982;SDS011;13773;48.868;10.730;2023-07-24T10:03:18;8.60;;;7.25;;
25982;SDS011;13773;48.868;10.730;2023-07-24T10:05:47;7.95;;;6.88;;
25982;SDS011;13773;48.868;10.730;2023-07-24T10:08:16;9.25;;;6.93;;
25982;SDS011;13773;48.868;10.730;2023-07-24T10:10:43;7.28;;;6.30;;
25982;SDS011;13773;48.868;10.730;2023-07-24T10:13:10;10.43;;;7.18;;
25982;SDS011;13773;48.868;10.730;2023-07-24T10:15:39;10.40;;;6.25;;
25982;SDS011;13773;48.868;10.730;2023-07-24T10:18:07;10.60;;;7.30;;
25982;SDS011;13773;48.868;10.730;2023-07-24T10:20:40;8.18;;;6.20;;
25982;SDS011;13773;48.868;10.730;2023-07-24T10:23:08;8.52;;;6.53;;
25982;SDS011;13773;48.868;10.730;2023-07-24T10:25:37;7.57;;;6.82;;
25982;SDS011;13773;48.868;10.730;2023-07-24T10:28:06;8.27;;;6.70;;
25982;SDS011;13773;48.868;10.730;2023-07-24T10:30:39;7.20;;;6.00;;
25982;SDS011;13773;48.868;10.730;2023-07-24T10:33:09;8.18;;;7.30;;
25982;SDS011;13773;48.868;10.730;2023-07-24T10:35:40;9.15;;;6.30;;
25982;SDS011;13773;48.868;10.730;2023-07-24T10:38:11;7.28;;;6.53;;
25982;SDS011;13773;48.868;10.730;2023-07-24T10:40:39;7.35;;;6.00;;
25982;SDS011;13773;48.868;10.730;2023-07-24T10:43:09;8.40;;;6.07;;
25982;SDS011;13773;48.868;10.730;2023-07-24T10:48:13;8.35;;;6.75;;
25982;SDS011;13773;48.868;10.730;2023-07-24T10:50:39;8.02;;;6.60;;
25982;SDS011;13773;48.868;10.730;2023-07-24T10:53:07;8.03;;;6.67;;
25982;SDS011;13773;48.868;10.730;2023-07-24T10:55:33;11.15;;;7.45;;
25982;SDS011;13773;48.868;10.730;2023-07-24T10:57:59;10.30;;;7.10;;
25982;SDS011;13773;48.868;10.730;2023-07-24T11:00:25;9.30;;;7.37;;
25982;SDS011;13773;48.868;10.730;2023-07-24T11:02:52;10.33;;;7.27;;
25982;SDS011;13773;48.868;10.730;2023-07-24T11:05:19;12.10;;;8.00;;
25982;SDS011;13773;48.868;10.730;2023-07-24T11:07:46;8.53;;;7.43;;
25982;SDS011;13773;48.868;10.730;2023-07-24T11:10:19;9.53;;;6.83;;
25982;SDS011;13773;48.868;10.730;2023-07-24T11:12:45;9.83;;;6.30;;
25982;SDS011;13773;48.868;10.730;2023-07-24T11:15:12;7.47;;;6.10;;
25982;SDS011;13773;48.868;10.730;2023-07-24T11:17:39;7.70;;;6.40;;
25982;SDS011;13773;48.868;10.730;2023-07-24T11:22:39;10.00;;;6.30;;
25982;SDS011;13773;48.868;10.730;2023-07-24T11:25:06;7.73;;;6.33;;
25982;SDS011;13773;48.868;10.730;2023-07-24T11:27:33;8.50;;;6.37;;
25982;SDS011;13773;48.868;10.730;2023-07-24T11:30:02;9.87;;;6.83;;
25982;SDS011;13773;48.868;10.730;2023-07-24T11:32:28;8.13;;;5.97;;
25982;SDS011;13773;48.868;10.730;2023-07-24T11:34:54;12.87;;;6.80;;
25982;SDS011;13773;48.868;10.730;2023-07-24T11:37:20;8.63;;;6.33;;
25982;SDS011;13773;48.868;10.730;2023-07-24T11:39:56;8.17;;;6.20;;
25982;SDS011;13773;48.868;10.730;2023-07-24T11:42:23;10.37;;;6.60;;
25982;SDS011;13773;48.868;10.730;2023-07-24T11:44:50;7.50;;;6.43;;
25982;SDS011;13773;48.868;10.730;2023-07-24T11:47:16;8.67;;;6.50;;
25982;SDS011;13773;48.868;10.730;2023-07-24T11:49:42;7.17;;;6.20;;
25982;SDS011;13773;48.868;10.730;2023-07-24T11:52:13;7.10;;;6.20;;
25982;SDS011;13773;48.868;10.730;2023-07-24T11:54:38;7.53;;;6.00;;
25982;SDS011;13773;48.868;10.730;2023-07-24T11:57:14;8.47;;;6.80;;
25982;SDS011;13773;48.868;10.730;2023-07-24T11:59:41;7.87;;;6.30;;
25982;SDS011;13773;48.868;10.730;2023-07-24T12:02:09;7.90;;;6.23;;
25982;SDS011;13773;48.868;10.730;2023-07-24T12:04:36;10.93;;;6.90;;
25982;SDS011;13773;48.868;10.730;2023-07-24T12:07:07;10.33;;;7.47;;
25982;SDS011;13773;48.868;10.730;2023-07-24T12:09:33;8.00;;;6.63;;
25982;SDS011;13773;48.868;10.730;2023-07-24T12:11:59;9.33;;;7.20;;
25982;SDS011;13773;48.868;10.730;2023-07-24T12:14:28;8.83;;;7.00;;
25982;SDS011;13773;48.868;10.730;2023-07-24T12:17:03;9.87;;;6.67;;
25982;SDS011;13773;48.868;10.730;2023-07-24T12:19:34;9.40;;;7.00;;
25982;SDS011;13773;48.868;10.730;2023-07-24T12:22:01;10.30;;;7.30;;
25982;SDS011;13773;48.868;10.730;2023-07-24T12:24:29;11.53;;;7.67;;
25982;SDS011;13773;48.868;10.730;2023-07-24T12:26:54;10.60;;;7.37;;
25982;SDS011;13773;48.868;10.730;2023-07-24T12:29:20;9.40;;;7.23;;
25982;SDS011;13773;48.868;10.730;2023-07-24T12:31:46;11.67;;;7.20;;
25982;SDS011;13773;48.868;10.730;2023-07-24T12:34:11;10.17;;;7.00;;
25982;SDS011;13773;48.868;10.730;2023-07-24T12:36:37;12.50;;;7.33;;
25982;SDS011;13773;48.868;10.730;2023-07-24T12:39:03;9.13;;;7.17;;
25982;SDS011;13773;48.868;10.730;2023-07-24T12:41:28;8.73;;;6.47;;
25982;SDS011;13773;48.868;10.730;2023-07-24T12:43:54;8.60;;;6.53;;
25982;SDS011;13773;48.868;10.730;2023-07-24T12:46:20;7.37;;;5.73;;
25982;SDS011;13773;48.868;10.730;2023-07-24T12:48:45;8.90;;;6.50;;
25982;SDS011;13773;48.868;10.730;2023-07-24T12:51:11;7.93;;;6.43;;
25982;SDS011;13773;48.868;10.730;2023-07-24T12:53:37;7.30;;;6.10;;
25982;SDS011;13773;48.868;10.730;2023-07-24T12:56:02;6.93;;;6.03;;
25982;SDS011;13773;48.868;10.730;2023-07-24T12:58:28;6.63;;;5.93;;
25982;SDS011;13773;48.868;10.730;2023-07-24T13:00:54;9.70;;;5.77;;
25982;SDS011;13773;48.868;10.730;2023-07-24T13:03:19;9.43;;;6.53;;
25982;SDS011;13773;48.868;10.730;2023-07-24T13:05:46;8.67;;;6.53;;
25982;SDS011;13773;48.868;10.730;2023-07-24T13:08:12;9.60;;;5.70;;
25982;SDS011;13773;48.868;10.730;2023-07-24T13:10:38;7.27;;;6.40;;
25982;SDS011;13773;48.868;10.730;2023-07-24T13:13:03;6.83;;;5.77;;
25982;SDS011;13773;48.868;10.730;2023-07-24T13:15:29;7.03;;;5.73;;
25982;SDS011;13773;48.868;10.730;2023-07-24T13:17:56;7.10;;;5.50;;
25982;SDS011;13773;48.868;10.730;2023-07-24T13:20:24;8.23;;;5.73;;
25982;SDS011;13773;48.868;10.730;2023-07-24T13:22:50;10.53;;;6.70;;
25982;SDS011;13773;48.868;10.730;2023-07-24T13:25:15;8.43;;;6.03;;
25982;SDS011;13773;48.868;10.730;2023-07-24T13:27:41;8.07;;;5.47;;
25982;SDS011;13773;48.868;10.730;2023-07-24T13:30:07;6.82;;;5.80;;
25982;SDS011;13773;48.868;10.730;2023-07-24T13:32:33;8.27;;;6.05;;
25982;SDS011;13773;48.868;10.730;2023-07-24T13:34:58;8.17;;;6.50;;
25982;SDS011;13773;48.868;10.730;2023-07-24T13:37:25;6.20;;;5.60;;
25982;SDS011;13773;48.868;10.730;2023-07-24T13:39:51;6.05;;;5.40;;
25982;SDS011;13773;48.868;10.730;2023-07-24T13:42:16;7.20;;;5.40;;
25982;SDS011;13773;48.868;10.730;2023-07-24T13:44:42;6.13;;;5.50;;
25982;SDS011;13773;48.868;10.730;2023-07-24T13:47:08;7.55;;;5.63;;
25982;SDS011;13773;48.868;10.730;2023-07-24T13:49:34;6.67;;;5.67;;
25982;SDS011;13773;48.868;10.730;2023-07-24T13:51:59;5.90;;;5.30;;
25982;SDS011;13773;48.868;10.730;2023-07-24T13:54:25;6.40;;;5.78;;
25982;SDS011;13773;48.868;10.730;2023-07-24T13:56:53;6.55;;;4.82;;
25982;SDS011;13773;48.868;10.730;2023-07-24T13:59:18;6.75;;;5.60;;
25982;SDS011;13773;48.868;10.730;2023-07-24T14:01:44;5.95;;;5.20;;
25982;SDS011;13773;48.868;10.730;2023-07-24T14:04:10;5.72;;;5.13;;
25982;SDS011;13773;48.868;10.730;2023-07-24T14:06:37;6.07;;;4.60;;
25982;SDS011;13773;48.868;10.730;2023-07-24T14:09:03;5.57;;;5.05;;
25982;SDS011;13773;48.868;10.730;2023-07-24T14:11:28;5.47;;;4.82;;
25982;SDS011;13773;48.868;10.730;2023-07-24T14:13:54;5.63;;;5.00;;
25982;SDS011;13773;48.868;10.730;2023-07-24T14:16:20;6.22;;;5.43;;
25982;SDS011;13773;48.868;10.730;2023-07-24T14:18:45;6.38;;;5.38;;
25982;SDS011;13773;48.868;10.730;2023-07-24T14:21:12;5.50;;;4.90;;
25982;SDS011;13773;48.868;10.730;2023-07-24T14:23:38;5.13;;;4.50;;
25982;SDS011;13773;48.868;10.730;2023-07-24T14:26:04;5.70;;;5.10;;
25982;SDS011;13773;48.868;10.730;2023-07-24T14:28:29;4.53;;;4.13;;
25982;SDS011;13773;48.868;10.730;2023-07-24T14:30:55;6.22;;;4.85;;
25982;SDS011;13773;48.868;10.730;2023-07-24T14:33:20;5.38;;;4.55;;